createdAt,value
2024-01-05T00:01:46.212Z,2.03
2024-01-05T00:04:50.649Z,1.52
2024-01-05T00:07:58.350Z,2.00
2024-01-05T00:11:00.508Z,1.90
2024-01-05T00:14:04.104Z,0.63
2024-01-05T00:17:06.903Z,0.65
2024-01-05T00:20:12.264Z,2.03
2024-01-05T00:23:17.504Z,1.58
2024-01-05T00:26:21.106Z,0.60
2024-01-05T00:29:24.385Z,1.67
2024-01-05T00:32:26.946Z,0.85
2024-01-05T00:35:35.384Z,0.45
2024-01-05T00:38:49.322Z,0.57
2024-01-05T00:41:51.906Z,1.63
2024-01-05T00:44:57.624Z,2.00
2024-01-05T00:48:00.829Z,1.52
2024-01-05T00:51:11.569Z,0.63
2024-01-05T00:54:14.068Z,1.75
2024-01-05T00:57:18.074Z,0.63
2024-01-05T01:00:21.166Z,2.37
2024-01-05T01:03:24.154Z,1.65
2024-01-05T01:06:28.135Z,2.33
2024-01-05T01:09:32.151Z,0.45
2024-01-05T01:12:34.464Z,2.40
2024-01-05T01:15:42.980Z,0.30
2024-01-05T01:18:48.934Z,2.22
2024-01-05T01:21:54.904Z,0.63
2024-01-05T01:24:57.345Z,2.20
2024-01-05T01:27:59.835Z,1.73
2024-01-05T01:31:02.304Z,2.23
2024-01-05T01:34:05.763Z,0.85
2024-01-05T01:37:08.188Z,1.05
2024-01-05T01:40:11.945Z,1.05
2024-01-05T01:43:26.727Z,1.60
2024-01-05T01:46:30.371Z,1.17
2024-01-05T01:49:33.399Z,1.10
2024-01-05T01:52:38.086Z,1.52
2024-01-05T01:55:42.875Z,3.58
2024-01-05T01:58:46.209Z,1.93
2024-01-05T02:01:53.452Z,3.10
2024-01-05T02:04:57.261Z,0.85
2024-01-05T02:08:01.836Z,2.28
2024-01-05T02:11:05.199Z,0.57
2024-01-05T02:14:07.871Z,1.83
2024-01-05T02:17:32.615Z,1.23
2024-01-05T02:20:36.603Z,0.80
2024-01-05T02:23:38.699Z,1.08
2024-01-05T02:26:42.543Z,1.90
2024-01-05T02:29:45.876Z,1.63
2024-01-05T02:32:48.392Z,1.70
2024-01-05T02:35:51.520Z,2.08
2024-01-05T02:38:53.760Z,3.08
2024-01-05T02:41:57.287Z,0.65
2024-01-05T02:44:59.695Z,1.53
2024-01-05T02:48:02.744Z,1.43
2024-01-05T02:51:05.403Z,1.85
2024-01-05T02:54:07.846Z,1.17
2024-01-05T02:57:10.251Z,2.15
2024-01-05T03:00:13.133Z,1.07
2024-01-05T03:03:19.285Z,0.70
2024-01-05T03:06:22.420Z,1.80
2024-01-05T03:09:26.989Z,2.38
2024-01-05T03:12:30.134Z,0.82
2024-01-05T03:15:33.817Z,2.73
2024-01-05T03:18:41.235Z,0.67
2024-01-05T03:21:43.932Z,0.95
2024-01-05T03:24:46.720Z,3.08
2024-01-05T03:27:49.268Z,0.77
2024-01-05T03:30:51.501Z,2.13
2024-01-05T03:33:58.064Z,0.83
2024-01-05T03:37:03.510Z,0.98
2024-01-05T03:40:06.594Z,0.85
2024-01-05T03:43:11.080Z,1.80
2024-01-05T03:46:15.923Z,1.30
2024-01-05T03:49:21.442Z,1.43
2024-01-05T03:52:23.818Z,1.05
2024-01-05T03:55:27.039Z,0.88
2024-01-05T03:58:29.856Z,0.47
2024-01-05T04:01:32.090Z,3.27
2024-01-05T04:04:34.535Z,0.70
2024-01-05T04:07:36.929Z,1.98
2024-01-05T04:10:39.601Z,1.15
2024-01-05T04:13:43.020Z,1.50
2024-01-05T04:16:46.256Z,5.63
2024-01-05T04:19:48.696Z,4.77
2024-01-05T04:22:50.851Z,1.58
2024-01-05T04:25:53.434Z,2.83
2024-01-05T04:28:57.340Z,5.00
2024-01-05T04:32:02.563Z,2.93
2024-01-05T04:35:05.121Z,4.23
2024-01-05T04:38:07.364Z,6.70
2024-01-05T04:41:13.594Z,3.88
2024-01-05T04:44:15.798Z,7.57
2024-01-05T04:47:17.949Z,4.20
2024-01-05T04:50:20.734Z,4.03
2024-01-05T04:53:22.941Z,4.13
2024-01-05T04:56:25.585Z,4.45
2024-01-05T04:59:28.891Z,4.72
2024-01-05T05:02:31.039Z,2.80
2024-01-05T05:05:33.062Z,5.77
2024-01-05T05:08:35.050Z,2.75
2024-01-05T05:11:37.265Z,2.33
2024-01-05T05:14:41.293Z,2.42
2024-01-05T05:17:43.869Z,3.43
2024-01-05T05:20:46.286Z,2.97
2024-01-05T05:23:48.376Z,3.25
2024-01-05T05:26:50.748Z,2.10
2024-01-05T05:29:52.704Z,1.90
2024-01-05T05:32:56.024Z,2.27
2024-01-05T05:36:01.103Z,2.60
2024-01-05T05:39:04.001Z,2.88
2024-01-05T05:42:06.570Z,3.80
2024-01-05T05:45:09.415Z,4.22
2024-01-05T05:48:16.709Z,3.07
2024-01-05T05:51:30.788Z,2.40
2024-01-05T05:54:33.864Z,6.20
2024-01-05T05:57:38.614Z,4.20
2024-01-05T06:00:44.828Z,3.75
2024-01-05T06:03:48.725Z,5.90
2024-01-05T06:06:51.357Z,11.10
2024-01-05T06:09:53.553Z,8.35
2024-01-05T06:12:55.717Z,5.50
2024-01-05T06:16:00.842Z,7.75
2024-01-05T06:19:05.901Z,6.93
2024-01-05T06:22:12.691Z,5.67
2024-01-05T06:25:15.817Z,7.95
2024-01-05T06:28:18.227Z,5.35
2024-01-05T06:31:27.482Z,6.07
2024-01-05T06:34:30.384Z,6.80
2024-01-05T06:37:39.169Z,7.67
2024-01-05T06:40:41.569Z,5.50
2024-01-05T06:43:45.624Z,11.57
2024-01-05T06:46:48.023Z,5.22
2024-01-05T06:49:50.771Z,9.50
2024-01-05T06:52:56.372Z,5.27
2024-01-05T06:56:03.243Z,11.52
2024-01-05T06:59:08.586Z,13.32
2024-01-05T07:02:14.368Z,6.88
2024-01-05T07:05:20.765Z,6.57
2024-01-05T07:08:28.813Z,9.03
2024-01-05T07:11:34.772Z,6.68
2024-01-05T07:14:40.273Z,7.43
2024-01-05T07:17:45.632Z,5.55
2024-01-05T07:20:48.176Z,11.87
2024-01-05T07:23:50.896Z,8.33
2024-01-05T07:26:53.672Z,11.00
2024-01-05T07:29:57.088Z,8.70
2024-01-05T07:33:00.121Z,9.00
2024-01-05T07:36:06.818Z,13.70
2024-01-05T07:39:13.909Z,16.93
2024-01-05T07:42:19.402Z,13.38
2024-01-05T07:45:21.590Z,11.70
2024-01-05T07:48:24.631Z,9.80
2024-01-05T07:51:27.892Z,11.63
2024-01-05T07:54:30.279Z,11.53
2024-01-05T07:57:32.633Z,14.05
2024-01-05T08:00:35.178Z,12.27
2024-01-05T08:03:38.448Z,16.10
2024-01-05T08:06:43.420Z,14.27
2024-01-05T08:09:45.637Z,15.97
2024-01-05T08:12:47.895Z,16.65
2024-01-05T08:15:51.453Z,16.25
2024-01-05T08:18:53.613Z,14.73
2024-01-05T08:21:55.956Z,15.23
2024-01-05T08:25:01.100Z,10.70
2024-01-05T08:28:03.722Z,12.88
2024-01-05T08:31:07.076Z,9.10
2024-01-05T08:34:09.416Z,7.20
2024-01-05T08:37:11.747Z,8.30
2024-01-05T08:40:15.228Z,8.53
2024-01-05T08:43:18.575Z,9.52
2024-01-05T08:46:21.481Z,10.43
2024-01-05T08:49:25.396Z,10.43
2024-01-05T08:52:30.600Z,9.37
2024-01-05T08:55:36.447Z,7.07
2024-01-05T08:58:38.794Z,8.68
2024-01-05T09:01:41.290Z,12.48
2024-01-05T09:04:43.444Z,11.77
2024-01-05T09:07:45.669Z,15.17
2024-01-05T09:10:49.883Z,11.93
2024-01-05T09:13:52.382Z,13.50
2024-01-05T09:17:02.444Z,15.38
2024-01-05T09:20:05.406Z,11.88
2024-01-05T09:23:10.263Z,11.77
2024-01-05T09:26:15.950Z,11.20
2024-01-05T09:29:18.289Z,15.48
2024-01-05T09:32:23.029Z,9.88
2024-01-05T09:35:27.335Z,9.73
2024-01-05T09:38:29.971Z,11.10
2024-01-05T09:41:32.512Z,16.43
2024-01-05T09:44:36.736Z,12.65
2024-01-05T09:47:41.057Z,13.00
2024-01-05T09:50:47.099Z,11.90
2024-01-05T09:53:51.554Z,12.63
2024-01-05T09:56:54.276Z,9.87
2024-01-05T09:59:57.706Z,11.10
2024-01-05T10:03:05.394Z,14.63
2024-01-05T10:06:07.612Z,16.42
2024-01-05T10:09:11.550Z,11.27
2024-01-05T10:12:14.599Z,13.17
2024-01-05T10:15:17.388Z,13.30
2024-01-05T10:18:24.385Z,12.10
2024-01-05T10:21:28.402Z,10.88
2024-01-05T10:24:31.660Z,10.93
2024-01-05T10:27:34.004Z,10.13
2024-01-05T10:30:37.546Z,11.15
2024-01-05T10:33:54.374Z,7.57
2024-01-05T10:37:16.622Z,9.13
2024-01-05T10:40:19.624Z,6.23
2024-01-05T10:43:24.127Z,12.67
2024-01-05T10:46:29.812Z,7.43
2024-01-05T10:49:33.176Z,8.93
2024-01-05T10:52:39.549Z,6.97
2024-01-05T10:55:44.181Z,9.10
2024-01-05T10:58:55.484Z,9.87
2024-01-05T11:01:59.564Z,4.63
2024-01-05T11:05:09.744Z,8.07
2024-01-05T11:08:30.583Z,4.63
2024-01-05T11:11:55.961Z,7.20
2024-01-05T11:15:19.121Z,2.73
2024-01-05T11:18:28.423Z,5.80
2024-01-05T11:21:52.671Z,3.75
2024-01-05T11:24:56.916Z,3.67
2024-01-05T11:27:59.982Z,3.93
2024-01-05T11:31:04.244Z,3.17
2024-01-05T11:34:08.734Z,3.03
2024-01-05T11:37:12.583Z,2.92
2024-01-05T11:40:31.519Z,3.10
2024-01-05T11:43:34.995Z,1.97
2024-01-05T11:46:58.414Z,3.10
2024-01-05T11:50:29.416Z,2.53
2024-01-05T11:53:34.357Z,2.53
2024-01-05T11:56:36.616Z,3.65
2024-01-05T11:59:47.927Z,4.10
2024-01-05T12:02:50.833Z,3.93
2024-01-05T12:05:56.333Z,3.22
2024-01-05T12:08:59.177Z,7.05
2024-01-05T12:12:18.236Z,5.05
2024-01-05T12:15:22.128Z,3.07
2024-01-05T12:18:34.856Z,3.20
2024-01-05T12:21:40.494Z,6.82
2024-01-05T12:24:42.596Z,6.07
2024-01-05T12:27:44.795Z,5.70
2024-01-05T12:30:53.625Z,8.30
2024-01-05T12:33:56.575Z,5.90
2024-01-05T12:37:08.822Z,7.82
2024-01-05T12:40:12.837Z,14.38
2024-01-05T12:43:14.819Z,8.40
2024-01-05T12:46:18.503Z,8.73
2024-01-05T12:49:21.880Z,8.40
2024-01-05T12:52:36.685Z,11.98
2024-01-05T12:55:39.163Z,8.15
2024-01-05T12:58:43.080Z,10.52
2024-01-05T13:01:45.202Z,11.67
2024-01-05T13:04:47.337Z,11.67
2024-01-05T13:07:49.478Z,11.27
2024-01-05T13:10:51.781Z,11.15
2024-01-05T13:13:54.156Z,13.85
2024-01-05T13:16:56.732Z,15.50
2024-01-05T13:20:01.489Z,14.70
2024-01-05T13:23:05.336Z,12.65
2024-01-05T13:26:07.420Z,13.43
2024-01-05T13:29:10.454Z,19.65
2024-01-05T13:32:13.063Z,14.33
2024-01-05T13:35:15.768Z,17.83
2024-01-05T13:38:19.395Z,20.27
2024-01-05T13:41:22.003Z,18.65
2024-01-05T13:44:25.235Z,22.10
2024-01-05T13:47:37.939Z,20.00
2024-01-05T13:50:40.286Z,18.53
2024-01-05T13:53:42.346Z,23.30
2024-01-05T13:56:44.369Z,18.75
2024-01-05T13:59:46.965Z,16.92
2024-01-05T14:02:50.248Z,16.03
2024-01-05T14:05:52.513Z,17.53
2024-01-05T14:08:54.516Z,19.42
2024-01-05T14:11:56.703Z,17.73
2024-01-05T14:14:58.939Z,19.60
2024-01-05T14:18:07.189Z,16.07
2024-01-05T14:21:16.650Z,18.30
2024-01-05T14:24:21.496Z,19.13
2024-01-05T14:27:28.013Z,19.83
2024-01-05T14:30:30.796Z,20.20
2024-01-05T14:33:36.422Z,22.50
2024-01-05T14:36:41.352Z,29.63
2024-01-05T14:39:47.806Z,18.20
2024-01-05T14:42:50.164Z,19.08
2024-01-05T14:45:52.514Z,21.80
2024-01-05T14:48:55.525Z,20.87
2024-01-05T14:52:01.893Z,19.97
2024-01-05T14:55:05.108Z,17.55
2024-01-05T14:58:08.251Z,17.45
2024-01-05T15:01:10.816Z,17.92
2024-01-05T15:04:14.061Z,17.90
2024-01-05T15:07:16.390Z,22.90
2024-01-05T15:10:18.719Z,19.08
2024-01-05T15:13:20.982Z,18.80
2024-01-05T15:16:23.445Z,21.38
2024-01-05T15:19:27.121Z,21.90
2024-01-05T15:22:29.279Z,23.13
2024-01-05T15:25:31.439Z,18.08
2024-01-05T15:28:36.429Z,16.42
2024-01-05T15:31:39.258Z,18.63
2024-01-05T15:34:44.818Z,21.97
2024-01-05T15:37:47.215Z,21.87
2024-01-05T15:40:49.572Z,24.45
2024-01-05T15:43:57.144Z,19.05
2024-01-05T15:46:59.720Z,17.52
2024-01-05T15:50:01.928Z,18.03
2024-01-05T15:53:04.647Z,19.37
2024-01-05T15:56:08.220Z,21.00
2024-01-05T15:59:13.585Z,21.38
2024-01-05T16:02:16.585Z,23.58
2024-01-05T16:05:19.948Z,18.07
2024-01-05T16:08:24.104Z,20.53
2024-01-05T16:11:32.001Z,25.60
2024-01-05T16:14:46.930Z,24.15
2024-01-05T16:17:49.172Z,23.88
2024-01-05T16:20:52.157Z,18.73
2024-01-05T16:23:56.568Z,24.17
2024-01-05T16:26:58.620Z,20.40
2024-01-05T16:30:00.957Z,20.98
2024-01-05T16:33:03.625Z,25.08
2024-01-05T16:36:07.517Z,23.13
2024-01-05T16:39:10.908Z,23.70
2024-01-05T16:42:15.436Z,26.83
2024-01-05T16:45:18.013Z,23.88
2024-01-05T16:48:20.551Z,23.95
2024-01-05T16:51:27.284Z,22.73
2024-01-05T16:54:31.265Z,23.07
2024-01-05T16:57:33.534Z,24.48
2024-01-05T17:00:36.438Z,27.52
2024-01-05T17:03:39.520Z,24.48
2024-01-05T17:06:43.717Z,23.83
2024-01-05T17:09:47.651Z,23.97
2024-01-05T17:12:50.740Z,25.67
2024-01-05T17:15:53.444Z,28.00
2024-01-05T17:19:00.749Z,25.30
2024-01-05T17:22:06.111Z,26.03
2024-01-05T17:25:09.740Z,26.83
2024-01-05T17:28:12.364Z,24.13
2024-01-05T17:31:14.982Z,24.88
2024-01-05T17:34:18.046Z,23.40
2024-01-05T17:37:20.454Z,26.67
2024-01-05T17:40:23.230Z,25.17
2024-01-05T17:43:25.692Z,24.13
2024-01-05T17:46:28.148Z,28.83
2024-01-05T17:49:30.822Z,33.40
2024-01-05T17:52:34.723Z,37.00
2024-01-05T17:55:38.398Z,33.37
2024-01-05T17:58:40.614Z,27.33
2024-01-05T18:01:45.869Z,32.22
2024-01-05T18:04:53.900Z,28.83
2024-01-05T18:07:57.552Z,28.07
2024-01-05T18:11:00.736Z,30.40
2024-01-05T18:14:04.928Z,28.02
2024-01-05T18:17:07.657Z,31.83
2024-01-05T18:20:12.055Z,28.02
2024-01-05T18:23:17.797Z,27.53
2024-01-05T18:26:24.571Z,31.37
2024-01-05T18:29:29.516Z,33.70
2024-01-05T18:32:32.467Z,30.80
2024-01-05T18:35:34.857Z,30.25
2024-01-05T18:38:37.151Z,27.90
2024-01-05T18:41:40.270Z,31.83
2024-01-05T18:44:43.241Z,33.13
2024-01-05T18:47:46.287Z,29.02
2024-01-05T18:50:51.598Z,28.50
2024-01-05T18:53:54.693Z,31.17
2024-01-05T18:56:56.991Z,32.40
2024-01-05T19:00:02.753Z,28.90
2024-01-05T19:03:06.018Z,24.40
2024-01-05T19:06:09.289Z,31.17
2024-01-05T19:09:15.655Z,22.53
2024-01-05T19:12:19.117Z,26.80
2024-01-05T19:15:22.145Z,22.38
2024-01-05T19:18:25.162Z,27.33
2024-01-05T19:21:28.137Z,29.05
2024-01-05T19:24:30.726Z,24.67
2024-01-05T19:27:33.965Z,27.23
2024-01-05T19:30:38.540Z,22.90
2024-01-05T19:33:41.037Z,26.58
2024-01-05T19:36:47.420Z,26.90
2024-01-05T19:39:53.762Z,25.53
2024-01-05T19:42:56.089Z,24.20
2024-01-05T19:45:58.548Z,24.52
2024-01-05T19:49:01.786Z,23.65
2024-01-05T19:52:06.672Z,26.42
2024-01-05T19:55:11.567Z,26.70
2024-01-05T19:58:14.943Z,24.53
2024-01-05T20:01:18.400Z,25.55
2024-01-05T20:04:21.103Z,23.02
2024-01-05T20:07:23.328Z,27.35
2024-01-05T20:10:25.898Z,28.13
2024-01-05T20:13:27.955Z,22.63
2024-01-05T20:16:34.265Z,28.58
2024-01-05T20:19:37.968Z,30.52
2024-01-05T20:22:41.580Z,24.58
2024-01-05T20:25:43.743Z,27.37
2024-01-05T20:28:47.828Z,30.47
2024-01-05T20:31:51.731Z,30.70
2024-01-05T20:34:54.176Z,34.13
2024-01-05T20:37:57.217Z,33.42
2024-01-05T20:40:59.771Z,32.83
2024-01-05T20:44:02.038Z,25.97
2024-01-05T20:47:05.000Z,26.30
2024-01-05T20:50:07.927Z,28.83
2024-01-05T20:53:12.017Z,28.85
2024-01-05T20:56:14.844Z,25.73
2024-01-05T20:59:17.565Z,23.90
2024-01-05T21:02:19.656Z,32.42
2024-01-05T21:05:21.764Z,28.08
2024-01-05T21:08:24.117Z,31.25
2024-01-05T21:11:26.277Z,29.70
2024-01-05T21:14:29.988Z,30.97
2024-01-05T21:17:32.473Z,39.83
2024-01-05T21:20:34.733Z,28.08
2024-01-05T21:23:36.832Z,28.80
2024-01-05T21:26:43.420Z,26.73
2024-01-05T21:29:46.251Z,24.20
2024-01-05T21:32:49.402Z,25.13
2024-01-05T21:35:52.515Z,29.73
2024-01-05T21:38:55.568Z,31.70
2024-01-05T21:41:58.366Z,26.33
2024-01-05T21:45:00.721Z,28.13
2024-01-05T21:48:06.211Z,27.13
2024-01-05T21:51:15.314Z,25.08
2024-01-05T21:54:19.759Z,35.33
2024-01-05T21:57:21.952Z,27.17
2024-01-05T22:00:24.569Z,24.40
2024-01-05T22:03:27.175Z,31.58
2024-01-05T22:06:35.389Z,24.25
2024-01-05T22:09:38.869Z,28.35
2024-01-05T22:12:41.245Z,30.30
2024-01-05T22:15:43.738Z,23.53
2024-01-05T22:18:47.192Z,25.92
2024-01-05T22:21:49.723Z,25.00
2024-01-05T22:24:54.279Z,29.17
2024-01-05T22:27:56.674Z,25.33
2024-01-05T22:30:59.034Z,28.27
2024-01-05T22:34:05.121Z,33.13
2024-01-05T22:37:07.970Z,26.08
2024-01-05T22:40:12.961Z,22.45
2024-01-05T22:43:18.198Z,24.20
2024-01-05T22:46:22.180Z,28.60
2024-01-05T22:49:24.827Z,25.80
2024-01-05T22:52:28.332Z,26.17
2024-01-05T22:55:30.719Z,26.98
2024-01-05T22:58:35.525Z,28.37
2024-01-05T23:01:39.228Z,28.80
2024-01-05T23:04:42.071Z,31.60
2024-01-05T23:07:44.556Z,26.38
2024-01-05T23:10:47.951Z,32.92
2024-01-05T23:13:51.914Z,28.77
2024-01-05T23:16:54.414Z,28.40
2024-01-05T23:19:57.065Z,32.47
2024-01-05T23:22:59.662Z,31.98
2024-01-05T23:26:02.054Z,33.70
2024-01-05T23:29:05.817Z,32.67
2024-01-05T23:32:08.568Z,28.37
2024-01-05T23:35:11.663Z,30.00
2024-01-05T23:38:14.235Z,29.27
2024-01-05T23:41:16.920Z,33.88
2024-01-05T23:44:19.808Z,31.37
2024-01-05T23:47:22.762Z,35.37
2024-01-05T23:50:25.340Z,34.72
2024-01-05T23:53:27.958Z,31.30
2024-01-05T23:56:30.213Z,31.27
2024-01-05T23:59:33.013Z,31.80
